Bethune, Colorado
Current Conditions -  °F | °C
As of 5:53 PM on Tuesday 21 Oct 2014 (Local Time) from KITR Reporting Station
Clear Clear  
Wind Chill: 21°   Ceiling: Unl
Heat Index: 21°   Visibility: 10mi
Dew Point:   Wind: 12mph
Humidity: 33%   Direction: 160°SSE
Pressure: 29.93"   Gusts: NA
Location:  39.3°N, 102.42°W
Report Text: KITR 212353Z AUTO 16010KT 10SM CLR 21/04 A2993 RMK AO2 PK WND 19026/2259 SLP098 T02110044 10261 20211 57007
Loading
Personal Weather Stations






























Interactive Weather Map
Tropical Storm Tracking
New forecast layout! Learn more

10-Day Weather Forecast

Advertisements
Track Severe Weather on mobile